sensor_id;sensor_type;location;lat;lon;timestamp;temperature;humidity
49549;DHT22;35450;44.518;7.466;2023-02-04T00:01:46;9.60;71.40
49549;DHT22;35450;44.518;7.466;2023-02-04T00:04:50;9.70;69.90
49549;DHT22;35450;44.518;7.466;2023-02-04T00:07:54;9.70;68.90
49549;DHT22;35450;44.518;7.466;2023-02-04T00:10:58;9.80;67.00
49549;DHT22;35450;44.518;7.466;2023-02-04T00:14:02;9.80;69.10
49549;DHT22;35450;44.518;7.466;2023-02-04T00:17:05;9.70;69.30
49549;DHT22;35450;44.518;7.466;2023-02-04T00:20:14;9.70;68.60
49549;DHT22;35450;44.518;7.466;2023-02-04T00:23:18;9.50;70.00
49549;DHT22;35450;44.518;7.466;2023-02-04T00:26:22;9.50;70.30
49549;DHT22;35450;44.518;7.466;2023-02-04T00:29:27;9.40;70.40
49549;DHT22;35450;44.518;7.466;2023-02-04T00:32:30;9.40;70.10
49549;DHT22;35450;44.518;7.466;2023-02-04T00:35:34;9.30;70.70
49549;DHT22;35450;44.518;7.466;2023-02-04T00:38:40;9.30;69.90
49549;DHT22;35450;44.518;7.466;2023-02-04T00:41:44;9.40;63.80
49549;DHT22;35450;44.518;7.466;2023-02-04T00:44:48;9.50;63.60
49549;DHT22;35450;44.518;7.466;2023-02-04T00:47:52;9.60;61.60
49549;DHT22;35450;44.518;7.466;2023-02-04T00:50:56;9.70;62.00
49549;DHT22;35450;44.518;7.466;2023-02-04T00:54:00;9.70;63.50
49549;DHT22;35450;44.518;7.466;2023-02-04T00:57:04;9.70;63.50
49549;DHT22;35450;44.518;7.466;2023-02-04T01:00:09;9.70;64.00
49549;DHT22;35450;44.518;7.466;2023-02-04T01:03:13;9.70;64.10
49549;DHT22;35450;44.518;7.466;2023-02-04T01:06:17;9.60;64.30
49549;DHT22;35450;44.518;7.466;2023-02-04T01:09:21;9.50;64.50
49549;DHT22;35450;44.518;7.466;2023-02-04T01:12:26;9.60;61.90
49549;DHT22;35450;44.518;7.466;2023-02-04T01:15:31;9.70;59.90
49549;DHT22;35450;44.518;7.466;2023-02-04T01:18:35;9.70;59.90
49549;DHT22;35450;44.518;7.466;2023-02-04T01:21:39;9.80;58.80
49549;DHT22;35450;44.518;7.466;2023-02-04T01:24:43;9.90;57.90
49549;DHT22;35450;44.518;7.466;2023-02-04T01:28:06;9.90;58.80
49549;DHT22;35450;44.518;7.466;2023-02-04T01:31:10;9.90;59.30
49549;DHT22;35450;44.518;7.466;2023-02-04T01:34:14;9.80;61.30
49549;DHT22;35450;44.518;7.466;2023-02-04T01:37:17;9.70;60.80
49549;DHT22;35450;44.518;7.466;2023-02-04T01:40:22;9.80;60.60
49549;DHT22;35450;44.518;7.466;2023-02-04T01:43:26;9.70;60.80
49549;DHT22;35450;44.518;7.466;2023-02-04T01:46:30;9.80;58.90
49549;DHT22;35450;44.518;7.466;2023-02-04T01:49:37;9.80;58.10
49549;DHT22;35450;44.518;7.466;2023-02-04T01:52:41;9.90;59.10
49549;DHT22;35450;44.518;7.466;2023-02-04T01:55:47;9.80;60.50
49549;DHT22;35450;44.518;7.466;2023-02-04T01:58:52;9.80;59.60
49549;DHT22;35450;44.518;7.466;2023-02-04T02:01:57;9.60;59.40
49549;DHT22;35450;44.518;7.466;2023-02-04T02:05:05;9.60;58.80
49549;DHT22;35450;44.518;7.466;2023-02-04T02:08:10;9.60;59.10
49549;DHT22;35450;44.518;7.466;2023-02-04T02:11:15;9.50;60.30
49549;DHT22;35450;44.518;7.466;2023-02-04T02:14:19;8.90;61.50
49549;DHT22;35450;44.518;7.466;2023-02-04T02:17:23;8.90;61.70
49549;DHT22;35450;44.518;7.466;2023-02-04T02:20:27;9.00;61.20
49549;DHT22;35450;44.518;7.466;2023-02-04T02:23:53;9.20;62.30
49549;DHT22;35450;44.518;7.466;2023-02-04T02:27:04;9.10;61.00
49549;DHT22;35450;44.518;7.466;2023-02-04T02:30:11;9.00;62.00
49549;DHT22;35450;44.518;7.466;2023-02-04T02:33:18;9.10;61.70
49549;DHT22;35450;44.518;7.466;2023-02-04T02:36:23;9.10;60.90
49549;DHT22;35450;44.518;7.466;2023-02-04T02:39:28;9.00;60.90
49549;DHT22;35450;44.518;7.466;2023-02-04T02:42:32;8.90;61.40
49549;DHT22;35450;44.518;7.466;2023-02-04T02:45:36;9.10;61.60
49549;DHT22;35450;44.518;7.466;2023-02-04T02:48:40;9.20;60.60
49549;DHT22;35450;44.518;7.466;2023-02-04T02:51:45;9.30;60.50
49549;DHT22;35450;44.518;7.466;2023-02-04T02:54:50;9.40;60.00
49549;DHT22;35450;44.518;7.466;2023-02-04T02:57:56;9.40;61.00
49549;DHT22;35450;44.518;7.466;2023-02-04T03:01:06;9.40;60.60
49549;DHT22;35450;44.518;7.466;2023-02-04T03:04:12;9.40;60.50
49549;DHT22;35450;44.518;7.466;2023-02-04T03:07:19;9.30;59.50
49549;DHT22;35450;44.518;7.466;2023-02-04T03:10:24;9.30;58.90
49549;DHT22;35450;44.518;7.466;2023-02-04T03:13:28;9.30;58.30
49549;DHT22;35450;44.518;7.466;2023-02-04T03:16:33;9.20;60.40
49549;DHT22;35450;44.518;7.466;2023-02-04T03:19:40;9.10;61.70
49549;DHT22;35450;44.518;7.466;2023-02-04T03:22:44;8.90;62.20
49549;DHT22;35450;44.518;7.466;2023-02-04T03:25:49;8.90;62.10
49549;DHT22;35450;44.518;7.466;2023-02-04T03:28:54;8.80;61.90
49549;DHT22;35450;44.518;7.466;2023-02-04T03:31:58;8.80;61.60
49549;DHT22;35450;44.518;7.466;2023-02-04T03:35:03;8.70;62.30
49549;DHT22;35450;44.518;7.466;2023-02-04T03:38:07;8.80;61.60
49549;DHT22;35450;44.518;7.466;2023-02-04T03:41:11;8.90;61.70
49549;DHT22;35450;44.518;7.466;2023-02-04T03:44:15;8.60;62.60
49549;DHT22;35450;44.518;7.466;2023-02-04T03:47:18;8.60;62.70
49549;DHT22;35450;44.518;7.466;2023-02-04T03:50:22;8.80;61.80
49549;DHT22;35450;44.518;7.466;2023-02-04T03:53:26;8.80;61.40
49549;DHT22;35450;44.518;7.466;2023-02-04T03:56:31;8.80;60.40
49549;DHT22;35450;44.518;7.466;2023-02-04T03:59:35;8.70;61.60
49549;DHT22;35450;44.518;7.466;2023-02-04T04:02:40;8.70;60.00
49549;DHT22;35450;44.518;7.466;2023-02-04T04:05:44;8.80;60.30
49549;DHT22;35450;44.518;7.466;2023-02-04T04:08:48;8.80;60.60
49549;DHT22;35450;44.518;7.466;2023-02-04T04:11:52;8.90;61.60
49549;DHT22;35450;44.518;7.466;2023-02-04T04:14:56;8.80;60.80
49549;DHT22;35450;44.518;7.466;2023-02-04T04:18:00;8.90;57.80
49549;DHT22;35450;44.518;7.466;2023-02-04T04:21:04;8.90;57.20
49549;DHT22;35450;44.518;7.466;2023-02-04T04:24:09;9.10;55.60
49549;DHT22;35450;44.518;7.466;2023-02-04T04:27:12;9.20;55.50
49549;DHT22;35450;44.518;7.466;2023-02-04T04:30:17;9.30;56.50
49549;DHT22;35450;44.518;7.466;2023-02-04T04:33:21;9.40;56.00
49549;DHT22;35450;44.518;7.466;2023-02-04T04:36:25;9.40;54.20
49549;DHT22;35450;44.518;7.466;2023-02-04T04:39:29;9.60;53.40
49549;DHT22;35450;44.518;7.466;2023-02-04T04:42:33;9.70;53.80
49549;DHT22;35450;44.518;7.466;2023-02-04T04:45:37;9.70;53.60
49549;DHT22;35450;44.518;7.466;2023-02-04T04:48:41;9.80;53.30
49549;DHT22;35450;44.518;7.466;2023-02-04T04:51:45;9.80;53.40
49549;DHT22;35450;44.518;7.466;2023-02-04T04:54:49;9.70;54.80
49549;DHT22;35450;44.518;7.466;2023-02-04T04:57:53;9.80;53.20
49549;DHT22;35450;44.518;7.466;2023-02-04T05:00:57;9.80;53.10
49549;DHT22;35450;44.518;7.466;2023-02-04T05:04:01;9.90;52.80
49549;DHT22;35450;44.518;7.466;2023-02-04T05:07:06;9.90;52.20
49549;DHT22;35450;44.518;7.466;2023-02-04T05:10:10;9.90;52.60
49549;DHT22;35450;44.518;7.466;2023-02-04T05:13:14;10.00;52.20
49549;DHT22;35450;44.518;7.466;2023-02-04T05:16:18;10.00;52.30
49549;DHT22;35450;44.518;7.466;2023-02-04T05:19:22;9.90;52.50
49549;DHT22;35450;44.518;7.466;2023-02-04T05:22:27;10.00;52.50
49549;DHT22;35450;44.518;7.466;2023-02-04T05:25:31;10.00;53.50
49549;DHT22;35450;44.518;7.466;2023-02-04T05:28:35;10.00;51.60
49549;DHT22;35450;44.518;7.466;2023-02-04T05:31:39;10.00;52.30
49549;DHT22;35450;44.518;7.466;2023-02-04T05:34:43;10.10;51.80
49549;DHT22;35450;44.518;7.466;2023-02-04T05:37:47;10.10;51.10
49549;DHT22;35450;44.518;7.466;2023-02-04T05:40:51;10.10;51.00
49549;DHT22;35450;44.518;7.466;2023-02-04T05:43:55;10.30;50.00
49549;DHT22;35450;44.518;7.466;2023-02-04T05:46:59;10.30;51.00
49549;DHT22;35450;44.518;7.466;2023-02-04T05:50:03;10.30;49.50
49549;DHT22;35450;44.518;7.466;2023-02-04T05:53:06;10.30;50.10
49549;DHT22;35450;44.518;7.466;2023-02-04T05:56:10;10.20;51.50
49549;DHT22;35450;44.518;7.466;2023-02-04T05:59:14;10.20;52.50
49549;DHT22;35450;44.518;7.466;2023-02-04T06:02:18;10.00;55.10
49549;DHT22;35450;44.518;7.466;2023-02-04T06:05:22;10.00;53.00
49549;DHT22;35450;44.518;7.466;2023-02-04T06:08:26;10.00;53.00
49549;DHT22;35450;44.518;7.466;2023-02-04T06:11:30;9.90;52.00
49549;DHT22;35450;44.518;7.466;2023-02-04T06:14:34;10.00;52.00
49549;DHT22;35450;44.518;7.466;2023-02-04T06:17:38;10.10;52.10
49549;DHT22;35450;44.518;7.466;2023-02-04T06:20:42;10.10;51.50
49549;DHT22;35450;44.518;7.466;2023-02-04T06:23:46;10.10;51.50
49549;DHT22;35450;44.518;7.466;2023-02-04T06:26:50;10.10;51.40
49549;DHT22;35450;44.518;7.466;2023-02-04T06:29:54;10.10;50.80
49549;DHT22;35450;44.518;7.466;2023-02-04T06:33:00;10.20;49.90
49549;DHT22;35450;44.518;7.466;2023-02-04T06:36:04;10.30;49.70
49549;DHT22;35450;44.518;7.466;2023-02-04T06:39:08;10.30;49.10
49549;DHT22;35450;44.518;7.466;2023-02-04T06:42:12;10.40;49.00
49549;DHT22;35450;44.518;7.466;2023-02-04T06:45:16;10.40;49.90
49549;DHT22;35450;44.518;7.466;2023-02-04T06:48:20;10.40;49.60
49549;DHT22;35450;44.518;7.466;2023-02-04T06:51:24;10.40;49.50
49549;DHT22;35450;44.518;7.466;2023-02-04T06:54:29;10.40;50.00
49549;DHT22;35450;44.518;7.466;2023-02-04T06:57:33;10.40;51.00
49549;DHT22;35450;44.518;7.466;2023-02-04T07:00:37;10.30;51.90
49549;DHT22;35450;44.518;7.466;2023-02-04T07:03:40;10.30;51.80
49549;DHT22;35450;44.518;7.466;2023-02-04T07:06:44;10.30;51.90
49549;DHT22;35450;44.518;7.466;2023-02-04T07:09:48;10.30;53.60
49549;DHT22;35450;44.518;7.466;2023-02-04T07:12:52;10.20;54.50
49549;DHT22;35450;44.518;7.466;2023-02-04T07:15:56;10.10;53.80
49549;DHT22;35450;44.518;7.466;2023-02-04T07:19:00;10.10;54.30
49549;DHT22;35450;44.518;7.466;2023-02-04T07:22:05;10.10;52.50
49549;DHT22;35450;44.518;7.466;2023-02-04T07:25:09;10.20;53.40
49549;DHT22;35450;44.518;7.466;2023-02-04T07:28:14;10.10;54.90
49549;DHT22;35450;44.518;7.466;2023-02-04T07:31:18;10.20;54.20
49549;DHT22;35450;44.518;7.466;2023-02-04T07:34:22;10.20;55.80
49549;DHT22;35450;44.518;7.466;2023-02-04T07:37:26;10.10;57.20
49549;DHT22;35450;44.518;7.466;2023-02-04T07:40:30;10.20;58.40
49549;DHT22;35450;44.518;7.466;2023-02-04T07:43:34;10.20;57.80
49549;DHT22;35450;44.518;7.466;2023-02-04T07:46:38;10.20;58.00
49549;DHT22;35450;44.518;7.466;2023-02-04T07:49:42;10.20;58.10
49549;DHT22;35450;44.518;7.466;2023-02-04T07:52:46;10.30;59.20
49549;DHT22;35450;44.518;7.466;2023-02-04T07:55:50;10.30;59.60
49549;DHT22;35450;44.518;7.466;2023-02-04T07:58:54;10.40;58.60
49549;DHT22;35450;44.518;7.466;2023-02-04T08:01:58;10.50;59.80
49549;DHT22;35450;44.518;7.466;2023-02-04T08:05:02;10.50;60.10
49549;DHT22;35450;44.518;7.466;2023-02-04T08:08:06;10.60;60.00
49549;DHT22;35450;44.518;7.466;2023-02-04T08:11:10;10.70;59.90
49549;DHT22;35450;44.518;7.466;2023-02-04T08:14:14;10.80;59.60
49549;DHT22;35450;44.518;7.466;2023-02-04T08:17:18;10.80;59.30
49549;DHT22;35450;44.518;7.466;2023-02-04T08:20:23;11.00;58.30
49549;DHT22;35450;44.518;7.466;2023-02-04T08:23:26;11.10;58.80
49549;DHT22;35450;44.518;7.466;2023-02-04T08:26:30;11.10;59.40
49549;DHT22;35450;44.518;7.466;2023-02-04T08:29:34;11.20;59.30
49549;DHT22;35450;44.518;7.466;2023-02-04T08:32:38;11.20;58.90
49549;DHT22;35450;44.518;7.466;2023-02-04T08:35:42;11.30;59.60
49549;DHT22;35450;44.518;7.466;2023-02-04T08:38:47;11.30;59.40
49549;DHT22;35450;44.518;7.466;2023-02-04T08:41:51;11.40;59.50
49549;DHT22;35450;44.518;7.466;2023-02-04T08:44:54;11.40;58.40
49549;DHT22;35450;44.518;7.466;2023-02-04T08:47:58;11.50;58.80
49549;DHT22;35450;44.518;7.466;2023-02-04T08:51:03;11.60;59.90
49549;DHT22;35450;44.518;7.466;2023-02-04T08:54:07;11.60;60.20
49549;DHT22;35450;44.518;7.466;2023-02-04T08:57:11;11.80;61.80
49549;DHT22;35450;44.518;7.466;2023-02-04T09:00:15;12.00;60.60
49549;DHT22;35450;44.518;7.466;2023-02-04T09:03:19;12.00;59.80
49549;DHT22;35450;44.518;7.466;2023-02-04T09:06:23;12.00;60.00
49549;DHT22;35450;44.518;7.466;2023-02-04T09:09:27;12.00;60.70
49549;DHT22;35450;44.518;7.466;2023-02-04T09:12:31;11.90;61.00
49549;DHT22;35450;44.518;7.466;2023-02-04T09:15:35;12.00;59.50
49549;DHT22;35450;44.518;7.466;2023-02-04T09:18:40;12.20;58.40
49549;DHT22;35450;44.518;7.466;2023-02-04T09:21:44;12.30;58.10
49549;DHT22;35450;44.518;7.466;2023-02-04T09:24:48;12.50;57.50
49549;DHT22;35450;44.518;7.466;2023-02-04T09:27:52;12.90;57.80
49549;DHT22;35450;44.518;7.466;2023-02-04T09:30:56;13.40;57.90
49549;DHT22;35450;44.518;7.466;2023-02-04T09:34:00;13.40;58.60
49549;DHT22;35450;44.518;7.466;2023-02-04T09:37:04;13.40;59.60
49549;DHT22;35450;44.518;7.466;2023-02-04T09:40:12;13.50;60.20
49549;DHT22;35450;44.518;7.466;2023-02-04T09:43:23;13.50;59.10
49549;DHT22;35450;44.518;7.466;2023-02-04T09:46:29;13.90;59.70
49549;DHT22;35450;44.518;7.466;2023-02-04T09:49:32;13.90;61.50
49549;DHT22;35450;44.518;7.466;2023-02-04T09:52:36;13.80;60.70
49549;DHT22;35450;44.518;7.466;2023-02-04T09:55:43;13.80;60.20
49549;DHT22;35450;44.518;7.466;2023-02-04T09:58:48;14.00;58.50
49549;DHT22;35450;44.518;7.466;2023-02-04T10:02:01;14.00;59.30
49549;DHT22;35450;44.518;7.466;2023-02-04T10:05:08;14.20;57.20
49549;DHT22;35450;44.518;7.466;2023-02-04T10:08:18;14.10;57.10
49549;DHT22;35450;44.518;7.466;2023-02-04T10:11:24;14.00;56.50
49549;DHT22;35450;44.518;7.466;2023-02-04T10:14:28;14.00;55.10
49549;DHT22;35450;44.518;7.466;2023-02-04T10:17:32;14.20;53.90
49549;DHT22;35450;44.518;7.466;2023-02-04T10:20:36;14.20;56.00
49549;DHT22;35450;44.518;7.466;2023-02-04T10:23:41;14.10;56.70
49549;DHT22;35450;44.518;7.466;2023-02-04T10:26:46;13.70;57.70
49549;DHT22;35450;44.518;7.466;2023-02-04T10:29:57;13.50;58.50
49549;DHT22;35450;44.518;7.466;2023-02-04T10:33:31;13.40;58.90
49549;DHT22;35450;44.518;7.466;2023-02-04T10:36:35;13.40;59.20
49549;DHT22;35450;44.518;7.466;2023-02-04T10:39:43;13.30;59.10
49549;DHT22;35450;44.518;7.466;2023-02-04T10:42:47;13.20;58.30
49549;DHT22;35450;44.518;7.466;2023-02-04T10:46:11;13.60;53.80
49549;DHT22;35450;44.518;7.466;2023-02-04T10:49:23;13.90;53.70
49549;DHT22;35450;44.518;7.466;2023-02-04T10:52:42;14.20;52.70
49549;DHT22;35450;44.518;7.466;2023-02-04T10:55:47;14.80;52.30
49549;DHT22;35450;44.518;7.466;2023-02-04T10:58:51;15.00;52.90
49549;DHT22;35450;44.518;7.466;2023-02-04T11:01:57;15.00;54.70
49549;DHT22;35450;44.518;7.466;2023-02-04T11:05:09;15.00;55.70
49549;DHT22;35450;44.518;7.466;2023-02-04T11:08:27;15.00;57.90
49549;DHT22;35450;44.518;7.466;2023-02-04T11:11:32;15.00;58.50
49549;DHT22;35450;44.518;7.466;2023-02-04T11:14:36;14.90;58.10
49549;DHT22;35450;44.518;7.466;2023-02-04T11:17:40;15.00;57.70
49549;DHT22;35450;44.518;7.466;2023-02-04T11:20:44;15.00;57.90
49549;DHT22;35450;44.518;7.466;2023-02-04T11:23:48;15.00;59.40
49549;DHT22;35450;44.518;7.466;2023-02-04T11:27:35;15.00;62.80
49549;DHT22;35450;44.518;7.466;2023-02-04T11:30:31;15.10;66.20
49549;DHT22;35450;44.518;7.466;2023-02-04T11:33:40;15.10;67.20
49549;DHT22;35450;44.518;7.466;2023-02-04T11:37:05;15.00;66.00
49549;DHT22;35450;44.518;7.466;2023-02-04T11:40:31;15.00;65.90
49549;DHT22;35450;44.518;7.466;2023-02-04T11:43:36;15.00;65.30
49549;DHT22;35450;44.518;7.466;2023-02-04T11:46:41;15.00;63.70
49549;DHT22;35450;44.518;7.466;2023-02-04T11:49:52;15.00;62.40
49549;DHT22;35450;44.518;7.466;2023-02-04T11:52:58;15.10;60.90
49549;DHT22;35450;44.518;7.466;2023-02-04T11:56:02;15.10;59.80
49549;DHT22;35450;44.518;7.466;2023-02-04T11:59:09;15.10;57.10
49549;DHT22;35450;44.518;7.466;2023-02-04T12:02:16;15.20;53.40
49549;DHT22;35450;44.518;7.466;2023-02-04T12:05:21;15.30;51.80
49549;DHT22;35450;44.518;7.466;2023-02-04T12:08:32;15.40;51.70
49549;DHT22;35450;44.518;7.466;2023-02-04T12:11:37;15.40;51.40
49549;DHT22;35450;44.518;7.466;2023-02-04T12:14:40;15.30;51.70
49549;DHT22;35450;44.518;7.466;2023-02-04T12:17:45;15.30;52.20
49549;DHT22;35450;44.518;7.466;2023-02-04T12:20:49;15.40;51.50
49549;DHT22;35450;44.518;7.466;2023-02-04T12:23:53;15.50;51.50
49549;DHT22;35450;44.518;7.466;2023-02-04T12:26:56;15.90;51.50
49549;DHT22;35450;44.518;7.466;2023-02-04T12:30:01;16.30;49.20
49549;DHT22;35450;44.518;7.466;2023-02-04T12:33:05;16.10;48.80
49549;DHT22;35450;44.518;7.466;2023-02-04T12:36:09;16.10;49.50
49549;DHT22;35450;44.518;7.466;2023-02-04T12:39:13;16.00;50.00
49549;DHT22;35450;44.518;7.466;2023-02-04T12:42:17;16.00;50.30
49549;DHT22;35450;44.518;7.466;2023-02-04T12:45:21;15.90;50.30
49549;DHT22;35450;44.518;7.466;2023-02-04T12:48:25;16.00;50.90
49549;DHT22;35450;44.518;7.466;2023-02-04T12:51:29;15.90;51.20
49549;DHT22;35450;44.518;7.466;2023-02-04T12:54:33;16.00;51.00
49549;DHT22;35450;44.518;7.466;2023-02-04T12:57:37;16.40;50.00
49549;DHT22;35450;44.518;7.466;2023-02-04T13:00:41;16.50;50.40
49549;DHT22;35450;44.518;7.466;2023-02-04T13:03:45;16.30;50.70
49549;DHT22;35450;44.518;7.466;2023-02-04T13:06:49;16.20;50.90
49549;DHT22;35450;44.518;7.466;2023-02-04T13:09:53;16.10;50.90
49549;DHT22;35450;44.518;7.466;2023-02-04T13:12:58;16.20;51.60
49549;DHT22;35450;44.518;7.466;2023-02-04T13:16:03;16.20;50.50
49549;DHT22;35450;44.518;7.466;2023-02-04T13:19:07;16.10;51.00
49549;DHT22;35450;44.518;7.466;2023-02-04T13:22:10;16.20;50.80
49549;DHT22;35450;44.518;7.466;2023-02-04T13:25:14;16.10;51.20
49549;DHT22;35450;44.518;7.466;2023-02-04T13:28:18;16.10;51.80
49549;DHT22;35450;44.518;7.466;2023-02-04T13:31:22;16.00;52.10
49549;DHT22;35450;44.518;7.466;2023-02-04T13:34:26;16.00;52.40
49549;DHT22;35450;44.518;7.466;2023-02-04T13:37:30;15.90;51.90
49549;DHT22;35450;44.518;7.466;2023-02-04T13:40:34;15.90;52.30
49549;DHT22;35450;44.518;7.466;2023-02-04T13:43:38;16.00;53.90
49549;DHT22;35450;44.518;7.466;2023-02-04T13:46:42;16.00;55.40
49549;DHT22;35450;44.518;7.466;2023-02-04T13:49:46;16.00;55.40
49549;DHT22;35450;44.518;7.466;2023-02-04T13:52:50;16.10;55.20
49549;DHT22;35450;44.518;7.466;2023-02-04T13:55:55;16.10;53.40
49549;DHT22;35450;44.518;7.466;2023-02-04T13:58:58;16.20;53.90
49549;DHT22;35450;44.518;7.466;2023-02-04T14:02:02;16.40;53.90
49549;DHT22;35450;44.518;7.466;2023-02-04T14:05:06;16.40;53.10
49549;DHT22;35450;44.518;7.466;2023-02-04T14:08:10;16.30;53.60
49549;DHT22;35450;44.518;7.466;2023-02-04T14:11:14;16.50;54.80
49549;DHT22;35450;44.518;7.466;2023-02-04T14:14:18;16.40;53.60
49549;DHT22;35450;44.518;7.466;2023-02-04T14:17:22;16.40;52.60
49549;DHT22;35450;44.518;7.466;2023-02-04T14:20:26;16.30;51.40
49549;DHT22;35450;44.518;7.466;2023-02-04T14:23:30;16.30;52.20
49549;DHT22;35450;44.518;7.466;2023-02-04T14:26:34;16.40;52.30
49549;DHT22;35450;44.518;7.466;2023-02-04T14:29:38;16.60;51.90
49549;DHT22;35450;44.518;7.466;2023-02-04T14:32:42;16.60;52.50
49549;DHT22;35450;44.518;7.466;2023-02-04T14:35:46;16.60;52.10
49549;DHT22;35450;44.518;7.466;2023-02-04T14:38:50;16.50;51.70
49549;DHT22;35450;44.518;7.466;2023-02-04T14:41:54;16.50;51.90
49549;DHT22;35450;44.518;7.466;2023-02-04T14:44:58;16.50;52.60
49549;DHT22;35450;44.518;7.466;2023-02-04T14:48:02;16.60;53.10
49549;DHT22;35450;44.518;7.466;2023-02-04T14:51:06;16.80;54.50
49549;DHT22;35450;44.518;7.466;2023-02-04T14:54:10;16.80;54.40
49549;DHT22;35450;44.518;7.466;2023-02-04T14:57:14;16.90;53.50
49549;DHT22;35450;44.518;7.466;2023-02-04T15:00:19;16.90;54.10
49549;DHT22;35450;44.518;7.466;2023-02-04T15:03:23;16.80;54.00
49549;DHT22;35450;44.518;7.466;2023-02-04T15:06:27;16.80;54.00
49549;DHT22;35450;44.518;7.466;2023-02-04T15:09:31;16.80;54.20
49549;DHT22;35450;44.518;7.466;2023-02-04T15:12:35;16.80;55.00
49549;DHT22;35450;44.518;7.466;2023-02-04T15:15:39;16.80;55.30
49549;DHT22;35450;44.518;7.466;2023-02-04T15:18:43;16.70;55.70
49549;DHT22;35450;44.518;7.466;2023-02-04T15:21:47;16.70;55.40
49549;DHT22;35450;44.518;7.466;2023-02-04T15:24:51;16.80;56.20
49549;DHT22;35450;44.518;7.466;2023-02-04T15:27:55;16.80;56.70
49549;DHT22;35450;44.518;7.466;2023-02-04T15:30:59;16.80;55.70
49549;DHT22;35450;44.518;7.466;2023-02-04T15:34:04;17.00;54.80
49549;DHT22;35450;44.518;7.466;2023-02-04T15:37:08;16.90;56.90
49549;DHT22;35450;44.518;7.466;2023-02-04T15:40:13;16.80;58.50
49549;DHT22;35450;44.518;7.466;2023-02-04T15:43:17;16.70;58.40
49549;DHT22;35450;44.518;7.466;2023-02-04T15:46:22;16.50;58.50
49549;DHT22;35450;44.518;7.466;2023-02-04T15:49:26;16.30;58.80
49549;DHT22;35450;44.518;7.466;2023-02-04T15:52:29;16.10;59.20
49549;DHT22;35450;44.518;7.466;2023-02-04T15:55:34;15.90;59.60
49549;DHT22;35450;44.518;7.466;2023-02-04T15:58:38;15.80;59.50
49549;DHT22;35450;44.518;7.466;2023-02-04T16:01:42;15.60;60.70
49549;DHT22;35450;44.518;7.466;2023-02-04T16:04:46;15.50;59.60
49549;DHT22;35450;44.518;7.466;2023-02-04T16:07:50;15.40;59.60
49549;DHT22;35450;44.518;7.466;2023-02-04T16:10:54;15.30;58.80
49549;DHT22;35450;44.518;7.466;2023-02-04T16:13:58;15.30;58.90
49549;DHT22;35450;44.518;7.466;2023-02-04T16:17:02;15.20;59.60
49549;DHT22;35450;44.518;7.466;2023-02-04T16:20:07;15.10;59.90
49549;DHT22;35450;44.518;7.466;2023-02-04T16:23:11;15.10;61.00
49549;DHT22;35450;44.518;7.466;2023-02-04T16:26:15;15.00;60.70
49549;DHT22;35450;44.518;7.466;2023-02-04T16:29:19;14.90;59.80
49549;DHT22;35450;44.518;7.466;2023-02-04T16:32:23;14.80;59.90
49549;DHT22;35450;44.518;7.466;2023-02-04T16:35:27;14.70;60.20
49549;DHT22;35450;44.518;7.466;2023-02-04T16:38:31;14.60;61.10
49549;DHT22;35450;44.518;7.466;2023-02-04T16:41:35;14.50;60.60
49549;DHT22;35450;44.518;7.466;2023-02-04T16:44:39;14.50;60.60
49549;DHT22;35450;44.518;7.466;2023-02-04T16:47:43;14.40;60.50
49549;DHT22;35450;44.518;7.466;2023-02-04T16:50:47;14.40;60.80
49549;DHT22;35450;44.518;7.466;2023-02-04T16:53:51;14.30;61.10
49549;DHT22;35450;44.518;7.466;2023-02-04T16:56:55;14.30;61.30
49549;DHT22;35450;44.518;7.466;2023-02-04T16:59:59;14.30;61.60
49549;DHT22;35450;44.518;7.466;2023-02-04T17:03:03;14.20;61.50
49549;DHT22;35450;44.518;7.466;2023-02-04T17:06:08;14.10;61.70
49549;DHT22;35450;44.518;7.466;2023-02-04T17:09:12;14.10;62.40
49549;DHT22;35450;44.518;7.466;2023-02-04T17:12:17;14.10;62.70
49549;DHT22;35450;44.518;7.466;2023-02-04T17:15:21;14.00;62.50
49549;DHT22;35450;44.518;7.466;2023-02-04T17:18:27;13.90;62.90
49549;DHT22;35450;44.518;7.466;2023-02-04T17:21:31;13.90;63.10
49549;DHT22;35450;44.518;7.466;2023-02-04T17:24:35;13.80;63.30
49549;DHT22;35450;44.518;7.466;2023-02-04T17:27:44;13.80;63.30
49549;DHT22;35450;44.518;7.466;2023-02-04T17:30:49;13.80;63.50
49549;DHT22;35450;44.518;7.466;2023-02-04T17:33:53;13.80;64.00
49549;DHT22;35450;44.518;7.466;2023-02-04T17:36:57;13.70;64.00
49549;DHT22;35450;44.518;7.466;2023-02-04T17:40:01;13.70;64.30
49549;DHT22;35450;44.518;7.466;2023-02-04T17:43:05;13.60;65.10
49549;DHT22;35450;44.518;7.466;2023-02-04T17:46:10;13.50;65.10
49549;DHT22;35450;44.518;7.466;2023-02-04T17:49:14;13.50;65.10
49549;DHT22;35450;44.518;7.466;2023-02-04T17:52:18;13.50;65.40
49549;DHT22;35450;44.518;7.466;2023-02-04T17:55:24;13.40;65.50
49549;DHT22;35450;44.518;7.466;2023-02-04T17:58:32;13.50;65.70
49549;DHT22;35450;44.518;7.466;2023-02-04T18:01:39;13.50;65.60
49549;DHT22;35450;44.518;7.466;2023-02-04T18:04:44;13.50;65.70
49549;DHT22;35450;44.518;7.466;2023-02-04T18:07:58;13.40;66.00
49549;DHT22;35450;44.518;7.466;2023-02-04T18:11:17;13.40;65.90
49549;DHT22;35450;44.518;7.466;2023-02-04T18:14:26;13.40;66.40
49549;DHT22;35450;44.518;7.466;2023-02-04T18:17:30;13.30;66.60
49549;DHT22;35450;44.518;7.466;2023-02-04T18:20:34;13.30;66.60
49549;DHT22;35450;44.518;7.466;2023-02-04T18:23:39;13.20;66.50
49549;DHT22;35450;44.518;7.466;2023-02-04T18:26:50;13.30;66.50
49549;DHT22;35450;44.518;7.466;2023-02-04T18:29:55;13.20;66.80
49549;DHT22;35450;44.518;7.466;2023-02-04T18:33:28;13.10;66.60
49549;DHT22;35450;44.518;7.466;2023-02-04T18:36:31;13.20;67.00
49549;DHT22;35450;44.518;7.466;2023-02-04T18:39:36;13.10;66.80
49549;DHT22;35450;44.518;7.466;2023-02-04T18:42:42;13.10;66.80
49549;DHT22;35450;44.518;7.466;2023-02-04T18:45:46;13.10;66.70
49549;DHT22;35450;44.518;7.466;2023-02-04T18:49:19;13.10;66.60
49549;DHT22;35450;44.518;7.466;2023-02-04T18:52:25;13.10;66.40
49549;DHT22;35450;44.518;7.466;2023-02-04T18:55:38;13.00;66.60
49549;DHT22;35450;44.518;7.466;2023-02-04T18:58:44;13.00;66.60
49549;DHT22;35450;44.518;7.466;2023-02-04T19:01:50;13.00;66.60
49549;DHT22;35450;44.518;7.466;2023-02-04T19:04:55;13.00;66.60
49549;DHT22;35450;44.518;7.466;2023-02-04T19:11:30;13.00;66.60
49549;DHT22;35450;44.518;7.466;2023-02-04T19:14:41;12.90;66.60
49549;DHT22;35450;44.518;7.466;2023-02-04T19:17:45;12.90;66.50
49549;DHT22;35450;44.518;7.466;2023-02-04T19:20:50;12.90;66.50
49549;DHT22;35450;44.518;7.466;2023-02-04T19:24:20;12.80;66.80
49549;DHT22;35450;44.518;7.466;2023-02-04T19:27:33;12.70;66.80
49549;DHT22;35450;44.518;7.466;2023-02-04T19:30:47;12.80;67.00
49549;DHT22;35450;44.518;7.466;2023-02-04T19:33:53;12.80;66.90
49549;DHT22;35450;44.518;7.466;2023-02-04T19:36:58;12.80;66.90
49549;DHT22;35450;44.518;7.466;2023-02-04T19:40:24;12.80;66.80